Airfield :
LOGIN :

Register | Disclaimer

   EN    FR    IT 

 










Legend :    VFR   Marginal VFR   IFR   Intensive IFR   Very Intensive IFR
Visi :
Ceiling :
>= 8 km
>= 3000ft
5 to 8 km
1000 to 3000 ft
1500m to 5 km
500 to 1000 ft
800 to 1500m
200 to 500 ft
< 800m
< 200 ft
Symbols :   Thunderstorms  Fog  Heavy snow  Heavy precipitations  Wind > 20 kt
SIGMETs :     Misc.  Thunderstorms  Icing  Turbulence  Mountain Waves  Volcanic Ashes







- Airport Elevation : 36 ft
- IATA code : GJL


DAAV - Jijel Ferhat Abbas

CURRENT METAR :
  • 241300Z 01008KT 9999 FEW023 29/20 Q1020

EXPIRED METARs :
  • 241200Z 36008KT 9999 FEW023 29/20 Q1020
  • 241100Z 36008KT CAVOK 29/19 Q1020

TAF TAF DAAV
Valid from the 24 at 12:00 until the 25 at 12:00 UTC


241100Z 2412/2512 02012KT CAVOK
PROB30
TEMPO 2414/2418 FEW020TCU
BECMG 2420/2422 20008KT
TEMPO 2502/2508 2000 BR BKN008
BECMG 2510/2512 02012KT
No reported NOTAMs for that airfield.
1 SIGMET reported for the Alger FIR (DAAA) :
 
Embedded thunderstorms
DAAA SIGMET 4 VALID 241200/241600 DAMM
DAAA ALGER FIR EMBD TS OBS WI N2733 W00414 - N2653 E00205 - N2432 E00147 - N2529 W00431 - N2733 W00414 TOP FL400 STNR NC=



MET'MAP, your aeronautical weather chart ! - Copyright ORBIFLY December 2007 - Disclaimer

ORBIFLY MET'MAP TEAM :

Programming & Development : Alexandra Zaïnal
Concept & Development : Baudouin d'Aumeries
Co-Development & Prog : Marc-Olivier Méhu
Technical & hardware support : Manuel Goepfert

Contact : metmap@orbifly.com




SOURCES & CREDITS :

   NOAA